sensor_id;sensor_type;location;lat;lon;timestamp;P1;durP1;ratioP1;P2;durP2;ratioP2
7381;SDS011;3732;48.052;7.800;2022-07-10T00:01:36;3.30;;;2.73;;
7381;SDS011;3732;48.052;7.800;2022-07-10T00:04:03;3.30;;;3.00;;
7381;SDS011;3732;48.052;7.800;2022-07-10T00:06:31;2.83;;;2.63;;
7381;SDS011;3732;48.052;7.800;2022-07-10T00:08:58;3.03;;;2.73;;
7381;SDS011;3732;48.052;7.800;2022-07-10T00:11:25;3.13;;;2.83;;
7381;SDS011;3732;48.052;7.800;2022-07-10T00:13:52;2.80;;;2.60;;
7381;SDS011;3732;48.052;7.800;2022-07-10T00:16:19;2.90;;;2.70;;
7381;SDS011;3732;48.052;7.800;2022-07-10T00:18:48;3.20;;;2.60;;
7381;SDS011;3732;48.052;7.800;2022-07-10T00:21:15;3.33;;;2.67;;
7381;SDS011;3732;48.052;7.800;2022-07-10T00:23:42;3.00;;;2.70;;
7381;SDS011;3732;48.052;7.800;2022-07-10T00:26:09;4.53;;;2.70;;
7381;SDS011;3732;48.052;7.800;2022-07-10T00:28:37;3.80;;;3.17;;
7381;SDS011;3732;48.052;7.800;2022-07-10T00:31:04;2.80;;;2.60;;
7381;SDS011;3732;48.052;7.800;2022-07-10T00:33:31;2.90;;;2.70;;
7381;SDS011;3732;48.052;7.800;2022-07-10T00:36:00;3.07;;;2.33;;
7381;SDS011;3732;48.052;7.800;2022-07-10T00:38:27;5.60;;;2.70;;
7381;SDS011;3732;48.052;7.800;2022-07-10T00:40:54;3.60;;;3.00;;
7381;SDS011;3732;48.052;7.800;2022-07-10T00:43:21;2.83;;;2.63;;
7381;SDS011;3732;48.052;7.800;2022-07-10T00:45:52;3.03;;;2.67;;
7381;SDS011;3732;48.052;7.800;2022-07-10T00:48:19;2.80;;;2.60;;
7381;SDS011;3732;48.052;7.800;2022-07-10T00:50:46;5.47;;;2.63;;
7381;SDS011;3732;48.052;7.800;2022-07-10T00:53:15;3.93;;;3.07;;
7381;SDS011;3732;48.052;7.800;2022-07-10T00:55:42;4.47;;;3.10;;
7381;SDS011;3732;48.052;7.800;2022-07-10T00:58:10;3.20;;;2.90;;
7381;SDS011;3732;48.052;7.800;2022-07-10T01:00:37;2.97;;;2.77;;
7381;SDS011;3732;48.052;7.800;2022-07-10T01:03:05;3.30;;;3.00;;
7381;SDS011;3732;48.052;7.800;2022-07-10T01:05:32;3.53;;;2.83;;
7381;SDS011;3732;48.052;7.800;2022-07-10T01:07:59;3.60;;;3.10;;
7381;SDS011;3732;48.052;7.800;2022-07-10T01:10:28;3.33;;;2.90;;
7381;SDS011;3732;48.052;7.800;2022-07-10T01:12:55;3.10;;;2.87;;
7381;SDS011;3732;48.052;7.800;2022-07-10T01:15:22;3.40;;;3.10;;
7381;SDS011;3732;48.052;7.800;2022-07-10T01:17:50;3.40;;;3.07;;
7381;SDS011;3732;48.052;7.800;2022-07-10T01:20:18;3.80;;;3.33;;
7381;SDS011;3732;48.052;7.800;2022-07-10T01:22:46;3.27;;;3.00;;
7381;SDS011;3732;48.052;7.800;2022-07-10T01:25:14;3.37;;;3.03;;
7381;SDS011;3732;48.052;7.800;2022-07-10T01:27:41;3.30;;;3.00;;
7381;SDS011;3732;48.052;7.800;2022-07-10T01:30:09;4.80;;;3.90;;
7381;SDS011;3732;48.052;7.800;2022-07-10T01:32:37;4.00;;;3.60;;
7381;SDS011;3732;48.052;7.800;2022-07-10T01:35:04;3.80;;;3.50;;
7381;SDS011;3732;48.052;7.800;2022-07-10T01:37:32;6.60;;;3.90;;
7381;SDS011;3732;48.052;7.800;2022-07-10T01:40:00;3.87;;;3.53;;
7381;SDS011;3732;48.052;7.800;2022-07-10T01:42:27;4.53;;;3.60;;
7381;SDS011;3732;48.052;7.800;2022-07-10T01:44:55;3.67;;;3.37;;
7381;SDS011;3732;48.052;7.800;2022-07-10T01:47:22;4.47;;;3.40;;
7381;SDS011;3732;48.052;7.800;2022-07-10T01:49:51;3.87;;;3.53;;
7381;SDS011;3732;48.052;7.800;2022-07-10T01:52:18;4.10;;;3.50;;
7381;SDS011;3732;48.052;7.800;2022-07-10T01:54:54;4.57;;;3.70;;
7381;SDS011;3732;48.052;7.800;2022-07-10T01:57:23;4.40;;;3.60;;
7381;SDS011;3732;48.052;7.800;2022-07-10T01:59:50;4.33;;;3.60;;
7381;SDS011;3732;48.052;7.800;2022-07-10T02:02:18;4.30;;;4.00;;
7381;SDS011;3732;48.052;7.800;2022-07-10T02:04:45;6.07;;;3.87;;
7381;SDS011;3732;48.052;7.800;2022-07-10T02:07:12;4.37;;;4.03;;
7381;SDS011;3732;48.052;7.800;2022-07-10T02:09:39;4.30;;;3.90;;
7381;SDS011;3732;48.052;7.800;2022-07-10T02:12:07;4.40;;;4.00;;
7381;SDS011;3732;48.052;7.800;2022-07-10T02:14:36;4.23;;;3.90;;
7381;SDS011;3732;48.052;7.800;2022-07-10T02:17:03;6.40;;;4.13;;
7381;SDS011;3732;48.052;7.800;2022-07-10T02:19:40;4.17;;;3.80;;
7381;SDS011;3732;48.052;7.800;2022-07-10T02:22:07;4.10;;;3.80;;
7381;SDS011;3732;48.052;7.800;2022-07-10T02:24:34;4.07;;;3.73;;
7381;SDS011;3732;48.052;7.800;2022-07-10T02:27:03;4.00;;;3.70;;
7381;SDS011;3732;48.052;7.800;2022-07-10T02:29:31;4.20;;;3.80;;
7381;SDS011;3732;48.052;7.800;2022-07-10T02:32:02;5.33;;;3.67;;
7381;SDS011;3732;48.052;7.800;2022-07-10T02:34:30;6.07;;;4.03;;
7381;SDS011;3732;48.052;7.800;2022-07-10T02:36:57;4.87;;;4.00;;
7381;SDS011;3732;48.052;7.800;2022-07-10T02:39:24;4.00;;;3.70;;
7381;SDS011;3732;48.052;7.800;2022-07-10T02:41:51;3.73;;;3.43;;
7381;SDS011;3732;48.052;7.800;2022-07-10T02:44:18;3.93;;;3.63;;
7381;SDS011;3732;48.052;7.800;2022-07-10T02:46:46;4.30;;;3.90;;
7381;SDS011;3732;48.052;7.800;2022-07-10T02:49:14;4.30;;;3.87;;
7381;SDS011;3732;48.052;7.800;2022-07-10T02:51:41;5.20;;;3.83;;
7381;SDS011;3732;48.052;7.800;2022-07-10T02:54:09;4.20;;;3.80;;
7381;SDS011;3732;48.052;7.800;2022-07-10T02:56:37;4.33;;;3.83;;
7381;SDS011;3732;48.052;7.800;2022-07-10T02:59:04;5.47;;;4.37;;
7381;SDS011;3732;48.052;7.800;2022-07-10T03:01:32;5.57;;;4.27;;
7381;SDS011;3732;48.052;7.800;2022-07-10T03:03:59;5.70;;;4.40;;
7381;SDS011;3732;48.052;7.800;2022-07-10T03:06:29;5.47;;;4.63;;
7381;SDS011;3732;48.052;7.800;2022-07-10T03:08:56;5.07;;;4.33;;
7381;SDS011;3732;48.052;7.800;2022-07-10T03:11:23;5.10;;;4.60;;
7381;SDS011;3732;48.052;7.800;2022-07-10T03:13:51;5.37;;;4.87;;
7381;SDS011;3732;48.052;7.800;2022-07-10T03:16:18;4.87;;;4.47;;
7381;SDS011;3732;48.052;7.800;2022-07-10T03:18:45;5.23;;;4.63;;
7381;SDS011;3732;48.052;7.800;2022-07-10T03:21:12;5.07;;;4.57;;
7381;SDS011;3732;48.052;7.800;2022-07-10T03:23:41;4.70;;;4.30;;
7381;SDS011;3732;48.052;7.800;2022-07-10T03:26:08;4.90;;;4.40;;
7381;SDS011;3732;48.052;7.800;2022-07-10T03:28:35;4.70;;;4.30;;
7381;SDS011;3732;48.052;7.800;2022-07-10T03:31:02;4.33;;;3.93;;
7381;SDS011;3732;48.052;7.800;2022-07-10T03:33:30;4.33;;;3.93;;
7381;SDS011;3732;48.052;7.800;2022-07-10T03:35:57;4.10;;;3.80;;
7381;SDS011;3732;48.052;7.800;2022-07-10T03:38:26;4.20;;;3.90;;
7381;SDS011;3732;48.052;7.800;2022-07-10T03:40:54;5.23;;;4.13;;
7381;SDS011;3732;48.052;7.800;2022-07-10T03:43:21;4.10;;;3.80;;
7381;SDS011;3732;48.052;7.800;2022-07-10T03:45:49;4.47;;;4.07;;
7381;SDS011;3732;48.052;7.800;2022-07-10T03:48:16;5.37;;;4.80;;
7381;SDS011;3732;48.052;7.800;2022-07-10T03:50:44;5.03;;;4.63;;
7381;SDS011;3732;48.052;7.800;2022-07-10T03:53:11;5.57;;;4.93;;
7381;SDS011;3732;48.052;7.800;2022-07-10T03:58:43;5.83;;;5.33;;
7381;SDS011;3732;48.052;7.800;2022-07-10T04:01:10;7.80;;;6.00;;
7381;SDS011;3732;48.052;7.800;2022-07-10T04:03:37;8.13;;;6.67;;
7381;SDS011;3732;48.052;7.800;2022-07-10T04:06:04;7.67;;;6.97;;
7381;SDS011;3732;48.052;7.800;2022-07-10T04:08:32;7.57;;;6.50;;
7381;SDS011;3732;48.052;7.800;2022-07-10T04:10:59;7.43;;;6.73;;
7381;SDS011;3732;48.052;7.800;2022-07-10T04:13:26;6.80;;;6.10;;
7381;SDS011;3732;48.052;7.800;2022-07-10T04:15:55;8.17;;;6.73;;
7381;SDS011;3732;48.052;7.800;2022-07-10T04:18:22;7.20;;;6.53;;
7381;SDS011;3732;48.052;7.800;2022-07-10T04:20:49;6.80;;;6.20;;
7381;SDS011;3732;48.052;7.800;2022-07-10T04:23:16;6.40;;;5.87;;
7381;SDS011;3732;48.052;7.800;2022-07-10T04:25:43;6.70;;;6.10;;
7381;SDS011;3732;48.052;7.800;2022-07-10T04:28:11;8.23;;;5.17;;
7381;SDS011;3732;48.052;7.800;2022-07-10T04:30:38;10.63;;;5.70;;
7381;SDS011;3732;48.052;7.800;2022-07-10T04:36:05;6.20;;;5.37;;
7381;SDS011;3732;48.052;7.800;2022-07-10T04:38:32;6.47;;;5.23;;
7381;SDS011;3732;48.052;7.800;2022-07-10T04:41:00;5.17;;;4.67;;
7381;SDS011;3732;48.052;7.800;2022-07-10T04:43:27;5.53;;;4.80;;
7381;SDS011;3732;48.052;7.800;2022-07-10T04:45:54;5.77;;;5.00;;
7381;SDS011;3732;48.052;7.800;2022-07-10T04:48:21;6.03;;;4.00;;
7381;SDS011;3732;48.052;7.800;2022-07-10T04:50:49;4.20;;;3.80;;
7381;SDS011;3732;48.052;7.800;2022-07-10T04:53:17;4.30;;;3.93;;
7381;SDS011;3732;48.052;7.800;2022-07-10T04:55:45;3.97;;;3.53;;
7381;SDS011;3732;48.052;7.800;2022-07-10T04:58:12;6.53;;;3.90;;
7381;SDS011;3732;48.052;7.800;2022-07-10T05:00:39;3.40;;;3.10;;
7381;SDS011;3732;48.052;7.800;2022-07-10T05:03:07;3.40;;;3.10;;
7381;SDS011;3732;48.052;7.800;2022-07-10T05:05:34;5.53;;;3.10;;
7381;SDS011;3732;48.052;7.800;2022-07-10T05:08:01;4.07;;;3.47;;
7381;SDS011;3732;48.052;7.800;2022-07-10T05:10:30;3.40;;;3.13;;
7381;SDS011;3732;48.052;7.800;2022-07-10T05:12:57;6.60;;;3.10;;
7381;SDS011;3732;48.052;7.800;2022-07-10T05:15:24;3.10;;;2.70;;
7381;SDS011;3732;48.052;7.800;2022-07-10T05:17:51;4.77;;;3.37;;
7381;SDS011;3732;48.052;7.800;2022-07-10T05:20:18;3.20;;;2.77;;
7381;SDS011;3732;48.052;7.800;2022-07-10T05:22:46;3.10;;;2.60;;
7381;SDS011;3732;48.052;7.800;2022-07-10T05:25:13;4.90;;;2.70;;
7381;SDS011;3732;48.052;7.800;2022-07-10T05:27:42;5.20;;;3.17;;
7381;SDS011;3732;48.052;7.800;2022-07-10T05:30:09;6.17;;;2.53;;
7381;SDS011;3732;48.052;7.800;2022-07-10T05:32:41;3.67;;;2.40;;
7381;SDS011;3732;48.052;7.800;2022-07-10T05:35:09;7.63;;;2.37;;
7381;SDS011;3732;48.052;7.800;2022-07-10T05:37:36;4.13;;;2.00;;
7381;SDS011;3732;48.052;7.800;2022-07-10T05:40:04;4.20;;;2.57;;
7381;SDS011;3732;48.052;7.800;2022-07-10T05:42:31;4.27;;;2.30;;
7381;SDS011;3732;48.052;7.800;2022-07-10T05:45:00;5.53;;;3.37;;
7381;SDS011;3732;48.052;7.800;2022-07-10T05:47:27;4.63;;;3.03;;
7381;SDS011;3732;48.052;7.800;2022-07-10T05:49:54;4.60;;;2.00;;
7381;SDS011;3732;48.052;7.800;2022-07-10T05:52:22;4.73;;;2.20;;
7381;SDS011;3732;48.052;7.800;2022-07-10T05:54:49;2.97;;;2.13;;
7381;SDS011;3732;48.052;7.800;2022-07-10T05:57:16;2.70;;;2.00;;
7381;SDS011;3732;48.052;7.800;2022-07-10T05:59:44;2.70;;;2.20;;
7381;SDS011;3732;48.052;7.800;2022-07-10T06:02:13;3.53;;;2.10;;
7381;SDS011;3732;48.052;7.800;2022-07-10T06:04:41;3.43;;;2.13;;
7381;SDS011;3732;48.052;7.800;2022-07-10T06:07:08;2.27;;;2.00;;
7381;SDS011;3732;48.052;7.800;2022-07-10T06:09:36;2.67;;;1.87;;
7381;SDS011;3732;48.052;7.800;2022-07-10T06:12:04;6.23;;;2.20;;
7381;SDS011;3732;48.052;7.800;2022-07-10T06:14:31;2.87;;;2.00;;
7381;SDS011;3732;48.052;7.800;2022-07-10T06:16:58;3.87;;;2.23;;
7381;SDS011;3732;48.052;7.800;2022-07-10T06:19:27;2.60;;;2.00;;
7381;SDS011;3732;48.052;7.800;2022-07-10T06:21:54;3.63;;;1.97;;
7381;SDS011;3732;48.052;7.800;2022-07-10T06:24:35;2.80;;;2.00;;
7381;SDS011;3732;48.052;7.800;2022-07-10T06:27:02;2.37;;;2.00;;
7381;SDS011;3732;48.052;7.800;2022-07-10T06:29:30;3.50;;;2.20;;
7381;SDS011;3732;48.052;7.800;2022-07-10T06:31:57;8.40;;;2.17;;
7381;SDS011;3732;48.052;7.800;2022-07-10T06:34:24;3.23;;;2.20;;
7381;SDS011;3732;48.052;7.800;2022-07-10T06:36:53;2.20;;;1.83;;
7381;SDS011;3732;48.052;7.800;2022-07-10T06:39:20;2.13;;;1.90;;
7381;SDS011;3732;48.052;7.800;2022-07-10T06:41:47;3.00;;;2.10;;
7381;SDS011;3732;48.052;7.800;2022-07-10T06:44:15;2.53;;;1.80;;
7381;SDS011;3732;48.052;7.800;2022-07-10T06:46:42;4.30;;;1.93;;
7381;SDS011;3732;48.052;7.800;2022-07-10T06:49:29;2.80;;;1.87;;
7381;SDS011;3732;48.052;7.800;2022-07-10T06:51:57;4.83;;;2.43;;
7381;SDS011;3732;48.052;7.800;2022-07-10T06:54:24;2.27;;;1.83;;
7381;SDS011;3732;48.052;7.800;2022-07-10T06:56:51;2.60;;;1.67;;
7381;SDS011;3732;48.052;7.800;2022-07-10T06:59:19;3.40;;;2.07;;
7381;SDS011;3732;48.052;7.800;2022-07-10T07:01:46;4.37;;;2.13;;
7381;SDS011;3732;48.052;7.800;2022-07-10T07:04:13;3.90;;;1.87;;
7381;SDS011;3732;48.052;7.800;2022-07-10T07:06:40;2.53;;;1.83;;
7381;SDS011;3732;48.052;7.800;2022-07-10T07:09:09;2.87;;;1.90;;
7381;SDS011;3732;48.052;7.800;2022-07-10T07:11:36;3.50;;;1.93;;
7381;SDS011;3732;48.052;7.800;2022-07-10T07:14:03;4.00;;;2.70;;
7381;SDS011;3732;48.052;7.800;2022-07-10T07:16:30;3.43;;;1.90;;
7381;SDS011;3732;48.052;7.800;2022-07-10T07:19:07;3.33;;;1.70;;
7381;SDS011;3732;48.052;7.800;2022-07-10T07:21:35;3.97;;;1.80;;
7381;SDS011;3732;48.052;7.800;2022-07-10T07:24:21;2.83;;;1.60;;
7381;SDS011;3732;48.052;7.800;2022-07-10T07:26:49;4.73;;;1.90;;
7381;SDS011;3732;48.052;7.800;2022-07-10T07:29:17;2.73;;;1.67;;
7381;SDS011;3732;48.052;7.800;2022-07-10T07:31:44;3.00;;;1.93;;
7381;SDS011;3732;48.052;7.800;2022-07-10T07:34:15;2.10;;;1.60;;
7381;SDS011;3732;48.052;7.800;2022-07-10T07:36:42;2.47;;;1.53;;
7381;SDS011;3732;48.052;7.800;2022-07-10T07:39:09;4.53;;;2.10;;
7381;SDS011;3732;48.052;7.800;2022-07-10T07:41:38;3.13;;;1.53;;
7381;SDS011;3732;48.052;7.800;2022-07-10T07:44:05;2.13;;;1.63;;
7381;SDS011;3732;48.052;7.800;2022-07-10T07:46:32;3.43;;;1.73;;
7381;SDS011;3732;48.052;7.800;2022-07-10T07:49:00;2.80;;;1.70;;
7381;SDS011;3732;48.052;7.800;2022-07-10T07:51:27;4.57;;;1.67;;
7381;SDS011;3732;48.052;7.800;2022-07-10T07:53:54;3.30;;;1.93;;
7381;SDS011;3732;48.052;7.800;2022-07-10T07:56:21;2.10;;;1.60;;
7381;SDS011;3732;48.052;7.800;2022-07-10T07:58:50;3.97;;;1.80;;
7381;SDS011;3732;48.052;7.800;2022-07-10T08:01:17;3.33;;;1.90;;
7381;SDS011;3732;48.052;7.800;2022-07-10T08:03:45;3.37;;;1.87;;
7381;SDS011;3732;48.052;7.800;2022-07-10T08:06:12;2.10;;;1.50;;
7381;SDS011;3732;48.052;7.800;2022-07-10T08:08:39;3.53;;;1.57;;
7381;SDS011;3732;48.052;7.800;2022-07-10T08:11:06;6.73;;;1.83;;
7381;SDS011;3732;48.052;7.800;2022-07-10T08:13:34;2.67;;;1.77;;
7381;SDS011;3732;48.052;7.800;2022-07-10T08:16:02;3.13;;;1.97;;
7381;SDS011;3732;48.052;7.800;2022-07-10T08:18:29;2.27;;;1.47;;
7381;SDS011;3732;48.052;7.800;2022-07-10T08:20:57;1.80;;;1.50;;
7381;SDS011;3732;48.052;7.800;2022-07-10T08:23:24;3.03;;;1.40;;
7381;SDS011;3732;48.052;7.800;2022-07-10T08:25:51;4.47;;;1.90;;
7381;SDS011;3732;48.052;7.800;2022-07-10T08:28:18;2.63;;;1.60;;
7381;SDS011;3732;48.052;7.800;2022-07-10T08:30:45;3.87;;;2.20;;
7381;SDS011;3732;48.052;7.800;2022-07-10T08:33:14;1.87;;;1.53;;
7381;SDS011;3732;48.052;7.800;2022-07-10T08:35:41;3.50;;;1.87;;
7381;SDS011;3732;48.052;7.800;2022-07-10T08:38:09;4.40;;;1.77;;
7381;SDS011;3732;48.052;7.800;2022-07-10T08:40:37;2.57;;;1.67;;
7381;SDS011;3732;48.052;7.800;2022-07-10T08:43:05;3.47;;;1.73;;
7381;SDS011;3732;48.052;7.800;2022-07-10T08:45:32;1.97;;;1.77;;
7381;SDS011;3732;48.052;7.800;2022-07-10T08:48:01;2.97;;;1.67;;
7381;SDS011;3732;48.052;7.800;2022-07-10T08:50:31;4.53;;;1.70;;
7381;SDS011;3732;48.052;7.800;2022-07-10T08:52:59;3.77;;;2.43;;
7381;SDS011;3732;48.052;7.800;2022-07-10T08:55:27;1.93;;;1.63;;
7381;SDS011;3732;48.052;7.800;2022-07-10T08:57:54;2.73;;;1.90;;
7381;SDS011;3732;48.052;7.800;2022-07-10T09:00:22;3.83;;;1.77;;
7381;SDS011;3732;48.052;7.800;2022-07-10T09:02:49;2.13;;;1.83;;
7381;SDS011;3732;48.052;7.800;2022-07-10T09:05:16;2.80;;;1.83;;
7381;SDS011;3732;48.052;7.800;2022-07-10T09:07:45;2.47;;;1.70;;
7381;SDS011;3732;48.052;7.800;2022-07-10T09:10:13;2.27;;;1.53;;
7381;SDS011;3732;48.052;7.800;2022-07-10T09:12:48;2.37;;;1.70;;
7381;SDS011;3732;48.052;7.800;2022-07-10T09:15:16;2.50;;;1.70;;
7381;SDS011;3732;48.052;7.800;2022-07-10T09:17:48;3.60;;;1.93;;
7381;SDS011;3732;48.052;7.800;2022-07-10T09:20:23;2.13;;;1.80;;
7381;SDS011;3732;48.052;7.800;2022-07-10T09:22:52;3.93;;;1.97;;
7381;SDS011;3732;48.052;7.800;2022-07-10T09:25:19;2.50;;;1.87;;
7381;SDS011;3732;48.052;7.800;2022-07-10T09:27:55;5.93;;;2.07;;
7381;SDS011;3732;48.052;7.800;2022-07-10T09:30:31;3.67;;;2.03;;
7381;SDS011;3732;48.052;7.800;2022-07-10T09:35:53;3.33;;;2.10;;
7381;SDS011;3732;48.052;7.800;2022-07-10T09:38:54;1.73;;;1.63;;
7381;SDS011;3732;48.052;7.800;2022-07-10T09:41:26;2.93;;;1.80;;
7381;SDS011;3732;48.052;7.800;2022-07-10T09:43:54;3.20;;;2.17;;
7381;SDS011;3732;48.052;7.800;2022-07-10T09:46:22;5.30;;;2.00;;
7381;SDS011;3732;48.052;7.800;2022-07-10T09:49:00;2.93;;;2.00;;
7381;SDS011;3732;48.052;7.800;2022-07-10T09:51:28;2.20;;;2.00;;
7381;SDS011;3732;48.052;7.800;2022-07-10T09:53:58;5.27;;;2.13;;
7381;SDS011;3732;48.052;7.800;2022-07-10T09:56:26;2.97;;;2.13;;
7381;SDS011;3732;48.052;7.800;2022-07-10T09:58:54;3.33;;;1.90;;
7381;SDS011;3732;48.052;7.800;2022-07-10T10:01:24;3.00;;;2.20;;
7381;SDS011;3732;48.052;7.800;2022-07-10T10:03:51;4.00;;;2.13;;
7381;SDS011;3732;48.052;7.800;2022-07-10T10:06:19;3.20;;;1.80;;
7381;SDS011;3732;48.052;7.800;2022-07-10T10:08:48;3.00;;;1.87;;
7381;SDS011;3732;48.052;7.800;2022-07-10T10:11:20;2.67;;;1.70;;
7381;SDS011;3732;48.052;7.800;2022-07-10T10:13:48;3.73;;;2.30;;
7381;SDS011;3732;48.052;7.800;2022-07-10T10:16:15;3.73;;;2.13;;
7381;SDS011;3732;48.052;7.800;2022-07-10T10:18:43;1.97;;;1.70;;
7381;SDS011;3732;48.052;7.800;2022-07-10T10:21:28;2.30;;;1.80;;
7381;SDS011;3732;48.052;7.800;2022-07-10T10:23:55;3.37;;;2.00;;
7381;SDS011;3732;48.052;7.800;2022-07-10T10:26:24;1.80;;;1.70;;
7381;SDS011;3732;48.052;7.800;2022-07-10T10:28:51;7.37;;;2.33;;
7381;SDS011;3732;48.052;7.800;2022-07-10T10:31:20;2.93;;;1.83;;
7381;SDS011;3732;48.052;7.800;2022-07-10T10:33:48;2.60;;;1.87;;
7381;SDS011;3732;48.052;7.800;2022-07-10T10:39:10;3.30;;;1.83;;
7381;SDS011;3732;48.052;7.800;2022-07-10T10:41:39;2.47;;;2.03;;
7381;SDS011;3732;48.052;7.800;2022-07-10T10:44:20;2.73;;;1.90;;
7381;SDS011;3732;48.052;7.800;2022-07-10T10:46:57;1.93;;;1.77;;
7381;SDS011;3732;48.052;7.800;2022-07-10T10:52:11;2.47;;;2.10;;
7381;SDS011;3732;48.052;7.800;2022-07-10T10:57:34;2.63;;;1.90;;
7381;SDS011;3732;48.052;7.800;2022-07-10T11:00:05;14.00;;;6.13;;
7381;SDS011;3732;48.052;7.800;2022-07-10T11:02:34;5.33;;;2.30;;
7381;SDS011;3732;48.052;7.800;2022-07-10T11:07:53;12.67;;;7.87;;
7381;SDS011;3732;48.052;7.800;2022-07-10T11:10:27;5.53;;;2.20;;
7381;SDS011;3732;48.052;7.800;2022-07-10T11:12:59;2.00;;;1.80;;
7381;SDS011;3732;48.052;7.800;2022-07-10T11:15:27;11.00;;;2.67;;
7381;SDS011;3732;48.052;7.800;2022-07-10T11:17:55;2.33;;;1.70;;
7381;SDS011;3732;48.052;7.800;2022-07-10T11:20:23;3.53;;;1.83;;
7381;SDS011;3732;48.052;7.800;2022-07-10T11:22:52;2.43;;;2.10;;
7381;SDS011;3732;48.052;7.800;2022-07-10T11:25:38;2.17;;;1.90;;
7381;SDS011;3732;48.052;7.800;2022-07-10T11:28:10;3.73;;;1.80;;
7381;SDS011;3732;48.052;7.800;2022-07-10T11:30:45;1.60;;;1.50;;
7381;SDS011;3732;48.052;7.800;2022-07-10T11:33:13;1.80;;;1.70;;
7381;SDS011;3732;48.052;7.800;2022-07-10T11:35:43;2.50;;;1.80;;
7381;SDS011;3732;48.052;7.800;2022-07-10T11:38:11;5.80;;;1.73;;
7381;SDS011;3732;48.052;7.800;2022-07-10T11:40:38;1.53;;;1.43;;
7381;SDS011;3732;48.052;7.800;2022-07-10T11:43:05;3.27;;;1.70;;
7381;SDS011;3732;48.052;7.800;2022-07-10T11:45:40;2.03;;;1.70;;
7381;SDS011;3732;48.052;7.800;2022-07-10T11:48:07;2.70;;;1.80;;
7381;SDS011;3732;48.052;7.800;2022-07-10T11:50:42;2.80;;;1.70;;
7381;SDS011;3732;48.052;7.800;2022-07-10T11:53:10;1.50;;;1.17;;
7381;SDS011;3732;48.052;7.800;2022-07-10T11:55:37;1.93;;;1.33;;
7381;SDS011;3732;48.052;7.800;2022-07-10T11:58:15;1.20;;;1.10;;
7381;SDS011;3732;48.052;7.800;2022-07-10T12:00:44;1.70;;;1.30;;
7381;SDS011;3732;48.052;7.800;2022-07-10T12:03:18;3.40;;;1.47;;
7381;SDS011;3732;48.052;7.800;2022-07-10T12:05:46;4.97;;;1.80;;
7381;SDS011;3732;48.052;7.800;2022-07-10T12:08:15;2.27;;;1.50;;
7381;SDS011;3732;48.052;7.800;2022-07-10T12:10:43;4.13;;;1.97;;
7381;SDS011;3732;48.052;7.800;2022-07-10T12:13:11;3.50;;;1.70;;
7381;SDS011;3732;48.052;7.800;2022-07-10T12:15:39;3.60;;;1.50;;
7381;SDS011;3732;48.052;7.800;2022-07-10T12:18:08;2.87;;;1.60;;
7381;SDS011;3732;48.052;7.800;2022-07-10T12:20:37;2.80;;;1.80;;
7381;SDS011;3732;48.052;7.800;2022-07-10T12:23:07;1.60;;;1.40;;
7381;SDS011;3732;48.052;7.800;2022-07-10T12:25:35;1.83;;;1.30;;
7381;SDS011;3732;48.052;7.800;2022-07-10T12:28:02;2.70;;;1.43;;
7381;SDS011;3732;48.052;7.800;2022-07-10T12:30:37;1.63;;;1.33;;
7381;SDS011;3732;48.052;7.800;2022-07-10T12:33:09;3.13;;;1.40;;
7381;SDS011;3732;48.052;7.800;2022-07-10T12:35:47;2.40;;;1.53;;
7381;SDS011;3732;48.052;7.800;2022-07-10T12:38:15;1.53;;;1.27;;
7381;SDS011;3732;48.052;7.800;2022-07-10T12:40:42;1.97;;;1.53;;
7381;SDS011;3732;48.052;7.800;2022-07-10T12:43:10;1.77;;;1.37;;
7381;SDS011;3732;48.052;7.800;2022-07-10T12:45:37;1.93;;;1.50;;
7381;SDS011;3732;48.052;7.800;2022-07-10T12:48:05;1.20;;;1.10;;
7381;SDS011;3732;48.052;7.800;2022-07-10T12:50:33;2.67;;;1.40;;
7381;SDS011;3732;48.052;7.800;2022-07-10T12:53:07;1.73;;;1.30;;
7381;SDS011;3732;48.052;7.800;2022-07-10T12:55:35;1.53;;;1.33;;
7381;SDS011;3732;48.052;7.800;2022-07-10T12:58:07;2.53;;;1.50;;
7381;SDS011;3732;48.052;7.800;2022-07-10T13:00:42;4.60;;;1.50;;
7381;SDS011;3732;48.052;7.800;2022-07-10T13:03:10;3.23;;;1.20;;
7381;SDS011;3732;48.052;7.800;2022-07-10T13:05:42;1.73;;;1.57;;
7381;SDS011;3732;48.052;7.800;2022-07-10T13:08:09;1.83;;;1.60;;
7381;SDS011;3732;48.052;7.800;2022-07-10T13:10:38;1.50;;;1.40;;
7381;SDS011;3732;48.052;7.800;2022-07-10T13:13:06;1.67;;;1.50;;
7381;SDS011;3732;48.052;7.800;2022-07-10T13:15:33;2.43;;;1.23;;
7381;SDS011;3732;48.052;7.800;2022-07-10T13:18:05;1.40;;;1.17;;
7381;SDS011;3732;48.052;7.800;2022-07-10T13:20:32;2.10;;;1.50;;
7381;SDS011;3732;48.052;7.800;2022-07-10T13:23:00;2.23;;;1.20;;
7381;SDS011;3732;48.052;7.800;2022-07-10T13:25:28;2.97;;;1.50;;
7381;SDS011;3732;48.052;7.800;2022-07-10T13:27:55;1.37;;;1.10;;
7381;SDS011;3732;48.052;7.800;2022-07-10T13:30:22;2.47;;;1.40;;
7381;SDS011;3732;48.052;7.800;2022-07-10T13:32:50;1.80;;;1.33;;
7381;SDS011;3732;48.052;7.800;2022-07-10T13:35:17;1.43;;;1.20;;
7381;SDS011;3732;48.052;7.800;2022-07-10T13:37:45;1.60;;;1.20;;
7381;SDS011;3732;48.052;7.800;2022-07-10T13:40:14;1.20;;;1.03;;
7381;SDS011;3732;48.052;7.800;2022-07-10T13:42:41;1.27;;;1.10;;
7381;SDS011;3732;48.052;7.800;2022-07-10T13:45:09;1.40;;;1.10;;
7381;SDS011;3732;48.052;7.800;2022-07-10T13:47:37;1.53;;;1.10;;
7381;SDS011;3732;48.052;7.800;2022-07-10T13:50:04;2.37;;;1.17;;
7381;SDS011;3732;48.052;7.800;2022-07-10T13:52:32;6.33;;;1.53;;
7381;SDS011;3732;48.052;7.800;2022-07-10T13:54:59;1.37;;;0.87;;
7381;SDS011;3732;48.052;7.800;2022-07-10T13:57:27;2.70;;;1.13;;
7381;SDS011;3732;48.052;7.800;2022-07-10T13:59:55;1.40;;;1.20;;
7381;SDS011;3732;48.052;7.800;2022-07-10T14:02:22;3.33;;;1.93;;
7381;SDS011;3732;48.052;7.800;2022-07-10T14:04:49;1.07;;;1.03;;
7381;SDS011;3732;48.052;7.800;2022-07-10T14:07:17;2.57;;;0.97;;
7381;SDS011;3732;48.052;7.800;2022-07-10T14:09:45;2.53;;;1.23;;
7381;SDS011;3732;48.052;7.800;2022-07-10T14:12:12;2.00;;;1.30;;
7381;SDS011;3732;48.052;7.800;2022-07-10T14:14:40;1.57;;;1.20;;
7381;SDS011;3732;48.052;7.800;2022-07-10T14:17:08;4.07;;;1.00;;
7381;SDS011;3732;48.052;7.800;2022-07-10T14:19:35;2.07;;;0.80;;
7381;SDS011;3732;48.052;7.800;2022-07-10T14:22:03;1.63;;;1.00;;
7381;SDS011;3732;48.052;7.800;2022-07-10T14:24:30;2.40;;;0.87;;
7381;SDS011;3732;48.052;7.800;2022-07-10T14:26:57;0.90;;;0.70;;
7381;SDS011;3732;48.052;7.800;2022-07-10T14:29:25;1.17;;;1.00;;
7381;SDS011;3732;48.052;7.800;2022-07-10T14:31:54;2.60;;;0.93;;
7381;SDS011;3732;48.052;7.800;2022-07-10T14:34:23;0.90;;;0.90;;
7381;SDS011;3732;48.052;7.800;2022-07-10T14:36:50;1.07;;;0.90;;
7381;SDS011;3732;48.052;7.800;2022-07-10T14:39:18;0.60;;;0.60;;
7381;SDS011;3732;48.052;7.800;2022-07-10T14:41:45;1.47;;;0.70;;
7381;SDS011;3732;48.052;7.800;2022-07-10T14:44:12;3.23;;;1.00;;
7381;SDS011;3732;48.052;7.800;2022-07-10T14:46:39;1.83;;;0.90;;
7381;SDS011;3732;48.052;7.800;2022-07-10T14:49:09;0.77;;;0.73;;
7381;SDS011;3732;48.052;7.800;2022-07-10T14:51:36;2.37;;;1.00;;
7381;SDS011;3732;48.052;7.800;2022-07-10T14:54:04;0.60;;;0.60;;
7381;SDS011;3732;48.052;7.800;2022-07-10T14:56:31;1.67;;;0.90;;
7381;SDS011;3732;48.052;7.800;2022-07-10T14:58:59;1.10;;;1.00;;
7381;SDS011;3732;48.052;7.800;2022-07-10T15:01:26;0.93;;;0.67;;
7381;SDS011;3732;48.052;7.800;2022-07-10T15:03:54;1.53;;;1.00;;
7381;SDS011;3732;48.052;7.800;2022-07-10T15:06:24;1.73;;;0.80;;
7381;SDS011;3732;48.052;7.800;2022-07-10T15:08:52;1.07;;;0.70;;
7381;SDS011;3732;48.052;7.800;2022-07-10T15:11:19;0.80;;;0.60;;
7381;SDS011;3732;48.052;7.800;2022-07-10T15:13:47;0.60;;;0.47;;
7381;SDS011;3732;48.052;7.800;2022-07-10T15:16:16;3.03;;;1.03;;
7381;SDS011;3732;48.052;7.800;2022-07-10T15:18:43;0.70;;;0.60;;
7381;SDS011;3732;48.052;7.800;2022-07-10T15:21:10;1.37;;;0.77;;
7381;SDS011;3732;48.052;7.800;2022-07-10T15:23:39;0.70;;;0.57;;
7381;SDS011;3732;48.052;7.800;2022-07-10T15:26:06;1.10;;;0.80;;
7381;SDS011;3732;48.052;7.800;2022-07-10T15:28:34;1.17;;;0.70;;
7381;SDS011;3732;48.052;7.800;2022-07-10T15:31:02;2.00;;;0.63;;
7381;SDS011;3732;48.052;7.800;2022-07-10T15:33:31;1.37;;;0.60;;
7381;SDS011;3732;48.052;7.800;2022-07-10T15:35:58;1.77;;;0.90;;
7381;SDS011;3732;48.052;7.800;2022-07-10T15:38:25;1.43;;;0.60;;
7381;SDS011;3732;48.052;7.800;2022-07-10T15:40:54;1.60;;;0.63;;
7381;SDS011;3732;48.052;7.800;2022-07-10T15:43:21;2.13;;;0.57;;